sensor_id;sensor_type;location;lat;lon;timestamp;temperature;humidity
71801;HTU21D;59647;55.838;37.292;2023-08-12T21:36:07;22.39;92.08
71801;HTU21D;59647;55.838;37.292;2023-08-12T21:38:32;22.57;91.47
71801;HTU21D;59647;55.838;37.292;2023-08-12T21:40:58;22.70;90.78
71801;HTU21D;59647;55.838;37.292;2023-08-12T21:43:24;22.79;90.31
71801;HTU21D;59647;55.838;37.292;2023-08-12T21:45:50;22.84;89.80
71801;HTU21D;59647;55.838;37.292;2023-08-12T21:48:16;22.92;89.33
71801;HTU21D;59647;55.838;37.292;2023-08-12T21:50:41;22.93;88.89
71801;HTU21D;59647;55.838;37.292;2023-08-12T21:53:07;22.93;88.62
71801;HTU21D;59647;55.838;37.292;2023-08-12T21:55:33;22.92;88.44
71801;HTU21D;59647;55.838;37.292;2023-08-12T21:57:59;22.87;88.27
71801;HTU21D;59647;55.838;37.292;2023-08-12T22:00:24;22.85;88.17
71801;HTU21D;59647;55.838;37.292;2023-08-12T22:02:50;22.80;88.07
71801;HTU21D;59647;55.838;37.292;2023-08-12T22:05:16;22.80;87.98
71801;HTU21D;59647;55.838;37.292;2023-08-12T22:07:42;22.81;87.86
71801;HTU21D;59647;55.838;37.292;2023-08-12T22:10:08;22.76;87.80
71801;HTU21D;59647;55.838;37.292;2023-08-12T22:12:34;22.73;87.68
71801;HTU21D;59647;55.838;37.292;2023-08-12T22:15:00;22.70;87.55
71801;HTU21D;59647;55.838;37.292;2023-08-12T22:17:26;22.69;87.46
71801;HTU21D;59647;55.838;37.292;2023-08-12T22:19:52;22.67;87.38
71801;HTU21D;59647;55.838;37.292;2023-08-12T22:22:18;22.67;87.50
71801;HTU21D;59647;55.838;37.292;2023-08-12T22:24:44;22.66;87.39
71801;HTU21D;59647;55.838;37.292;2023-08-12T22:27:10;22.61;87.28
71801;HTU21D;59647;55.838;37.292;2023-08-12T22:29:37;22.58;87.48
71801;HTU21D;59647;55.838;37.292;2023-08-12T22:32:03;22.56;87.38
71801;HTU21D;59647;55.838;37.292;2023-08-12T22:34:29;22.55;87.84
71801;HTU21D;59647;55.838;37.292;2023-08-12T22:36:56;22.56;87.12
71801;HTU21D;59647;55.838;37.292;2023-08-12T22:39:22;22.55;87.37
71801;HTU21D;59647;55.838;37.292;2023-08-12T22:41:48;22.50;87.54
71801;HTU21D;59647;55.838;37.292;2023-08-12T22:44:14;22.49;87.36
71801;HTU21D;59647;55.838;37.292;2023-08-12T22:46:40;22.46;87.31
71801;HTU21D;59647;55.838;37.292;2023-08-12T22:49:05;22.42;87.26
71801;HTU21D;59647;55.838;37.292;2023-08-12T22:51:31;22.38;87.19
71801;HTU21D;59647;55.838;37.292;2023-08-12T22:53:57;22.37;87.25
71801;HTU21D;59647;55.838;37.292;2023-08-12T22:56:25;22.37;87.38
71801;HTU21D;59647;55.838;37.292;2023-08-12T22:58:51;22.35;87.61
71801;HTU21D;59647;55.838;37.292;2023-08-12T23:01:17;22.35;86.95
71801;HTU21D;59647;55.838;37.292;2023-08-12T23:03:43;22.31;87.28
71801;HTU21D;59647;55.838;37.292;2023-08-12T23:06:08;22.26;87.53
71801;HTU21D;59647;55.838;37.292;2023-08-12T23:08:34;22.22;87.49
71801;HTU21D;59647;55.838;37.292;2023-08-12T23:11:00;22.18;87.51
71801;HTU21D;59647;55.838;37.292;2023-08-12T23:13:26;22.16;87.57
71801;HTU21D;59647;55.838;37.292;2023-08-12T23:15:52;22.13;87.62
71801;HTU21D;59647;55.838;37.292;2023-08-12T23:18:17;22.12;87.56
71801;HTU21D;59647;55.838;37.292;2023-08-12T23:20:43;22.09;87.39
71801;HTU21D;59647;55.838;37.292;2023-08-12T23:23:09;22.04;87.42
71801;HTU21D;59647;55.838;37.292;2023-08-12T23:25:35;21.96;87.45
71801;HTU21D;59647;55.838;37.292;2023-08-12T23:28:02;21.93;87.57
71801;HTU21D;59647;55.838;37.292;2023-08-12T23:30:28;21.90;87.45
71801;HTU21D;59647;55.838;37.292;2023-08-12T23:32:54;21.89;87.25
71801;HTU21D;59647;55.838;37.292;2023-08-12T23:35:20;21.83;87.12
71801;HTU21D;59647;55.838;37.292;2023-08-12T23:37:47;21.77;87.68
71801;HTU21D;59647;55.838;37.292;2023-08-12T23:40:14;21.75;87.79
71801;HTU21D;59647;55.838;37.292;2023-08-12T23:42:41;21.72;87.97
71801;HTU21D;59647;55.838;37.292;2023-08-12T23:45:08;21.66;88.06
71801;HTU21D;59647;55.838;37.292;2023-08-12T23:47:34;21.61;88.07
71801;HTU21D;59647;55.838;37.292;2023-08-12T23:50:00;21.57;88.12
71801;HTU21D;59647;55.838;37.292;2023-08-12T23:52:26;21.49;89.38
71801;HTU21D;59647;55.838;37.292;2023-08-12T23:54:51;21.50;88.50
71801;HTU21D;59647;55.838;37.292;2023-08-12T23:57:17;21.50;88.04
71801;HTU21D;59647;55.838;37.292;2023-08-12T23:59:43;21.51;88.39
